sensor_id;sensor_type;location;lat;lon;timestamp;pressure;altitude;pressure_sealevel;temperature;humidity
72262;BME280;60173;52.112;8.648;2022-08-03T00:01:46;100588.47;;;18.35;77.49
72262;BME280;60173;52.112;8.648;2022-08-03T00:04:13;100588.69;;;18.30;77.59
72262;BME280;60173;52.112;8.648;2022-08-03T00:06:39;100596.47;;;18.28;77.61
72262;BME280;60173;52.112;8.648;2022-08-03T00:09:06;100596.03;;;18.26;77.77
72262;BME280;60173;52.112;8.648;2022-08-03T00:11:32;100595.91;;;18.22;78.01
72262;BME280;60173;52.112;8.648;2022-08-03T00:13:59;100598.56;;;18.19;78.28
72262;BME280;60173;52.112;8.648;2022-08-03T00:16:26;100592.72;;;18.20;78.18
72262;BME280;60173;52.112;8.648;2022-08-03T00:18:52;100593.06;;;18.19;77.98
72262;BME280;60173;52.112;8.648;2022-08-03T00:21:19;100588.38;;;18.19;78.03
72262;BME280;60173;52.112;8.648;2022-08-03T00:23:45;100590.69;;;18.17;78.20
72262;BME280;60173;52.112;8.648;2022-08-03T00:26:18;100591.69;;;18.13;78.44
72262;BME280;60173;52.112;8.648;2022-08-03T00:28:44;100587.47;;;18.15;78.14
72262;BME280;60173;52.112;8.648;2022-08-03T00:31:11;100582.31;;;18.14;78.18
72262;BME280;60173;52.112;8.648;2022-08-03T00:33:39;100588.63;;;18.14;78.34
72262;BME280;60173;52.112;8.648;2022-08-03T00:36:26;100588.16;;;18.12;78.37
72262;BME280;60173;52.112;8.648;2022-08-03T00:38:52;100590.44;;;18.10;78.22
72262;BME280;60173;52.112;8.648;2022-08-03T00:41:19;100583.47;;;18.13;78.24
72262;BME280;60173;52.112;8.648;2022-08-03T00:43:45;100586.44;;;18.07;78.22
72262;BME280;60173;52.112;8.648;2022-08-03T00:46:12;100579.81;;;18.09;78.17
72262;BME280;60173;52.112;8.648;2022-08-03T00:48:45;100586.69;;;18.02;78.71
72262;BME280;60173;52.112;8.648;2022-08-03T00:51:12;100583.00;;;17.98;78.85
72262;BME280;60173;52.112;8.648;2022-08-03T00:53:38;100586.34;;;17.92;79.28
72262;BME280;60173;52.112;8.648;2022-08-03T00:56:05;100579.25;;;17.91;79.26
72262;BME280;60173;52.112;8.648;2022-08-03T00:58:31;100584.28;;;17.89;79.41
72262;BME280;60173;52.112;8.648;2022-08-03T01:00:57;100577.75;;;17.81;79.50
72262;BME280;60173;52.112;8.648;2022-08-03T01:03:24;100576.81;;;17.77;80.26
72262;BME280;60173;52.112;8.648;2022-08-03T01:05:52;100579.25;;;17.78;79.98
72262;BME280;60173;52.112;8.648;2022-08-03T01:08:43;100569.72;;;17.76;79.93
72262;BME280;60173;52.112;8.648;2022-08-03T01:11:45;100568.69;;;17.68;79.96
72262;BME280;60173;52.112;8.648;2022-08-03T01:14:33;100572.72;;;17.71;79.79
72262;BME280;60173;52.112;8.648;2022-08-03T01:17:24;100564.69;;;17.66;80.03
72262;BME280;60173;52.112;8.648;2022-08-03T01:20:06;100565.47;;;17.66;79.99
72262;BME280;60173;52.112;8.648;2022-08-03T01:22:46;100571.78;;;17.67;79.91
72262;BME280;60173;52.112;8.648;2022-08-03T01:28:38;100566.06;;;17.59;80.18
72262;BME280;60173;52.112;8.648;2022-08-03T01:31:11;100568.91;;;17.63;80.14
72262;BME280;60173;52.112;8.648;2022-08-03T01:33:46;100567.19;;;17.58;80.12
72262;BME280;60173;52.112;8.648;2022-08-03T01:36:20;100568.22;;;17.54;80.38
72262;BME280;60173;52.112;8.648;2022-08-03T01:38:55;100563.06;;;17.52;80.32
72262;BME280;60173;52.112;8.648;2022-08-03T01:41:28;100569.59;;;17.48;80.66
72262;BME280;60173;52.112;8.648;2022-08-03T01:43:57;100574.28;;;17.47;80.81
72262;BME280;60173;52.112;8.648;2022-08-03T01:46:45;100572.00;;;17.49;80.64
72262;BME280;60173;52.112;8.648;2022-08-03T01:49:15;100564.91;;;17.48;80.58
72262;BME280;60173;52.112;8.648;2022-08-03T01:51:42;100564.53;;;17.37;81.06
72262;BME280;60173;52.112;8.648;2022-08-03T01:54:30;100572.19;;;17.32;81.24
72262;BME280;60173;52.112;8.648;2022-08-03T01:56:58;100568.06;;;17.26;81.49
72262;BME280;60173;52.112;8.648;2022-08-03T01:59:25;100559.63;;;17.19;81.85
72262;BME280;60173;52.112;8.648;2022-08-03T02:01:55;100562.09;;;17.11;82.07
72262;BME280;60173;52.112;8.648;2022-08-03T02:04:44;100555.00;;;17.10;82.40
72262;BME280;60173;52.112;8.648;2022-08-03T02:07:13;100563.56;;;17.09;82.25
72262;BME280;60173;52.112;8.648;2022-08-03T02:09:43;100560.81;;;17.09;82.40
72262;BME280;60173;52.112;8.648;2022-08-03T02:12:11;100551.81;;;17.08;82.26
72262;BME280;60173;52.112;8.648;2022-08-03T02:14:40;100552.72;;;17.12;82.11
72262;BME280;60173;52.112;8.648;2022-08-03T02:17:08;100559.13;;;17.16;81.91
72262;BME280;60173;52.112;8.648;2022-08-03T02:19:36;100556.31;;;17.25;81.54
72262;BME280;60173;52.112;8.648;2022-08-03T02:22:04;100551.50;;;17.22;81.25
72262;BME280;60173;52.112;8.648;2022-08-03T02:24:33;100547.59;;;17.23;81.27
72262;BME280;60173;52.112;8.648;2022-08-03T02:27:01;100555.72;;;17.20;81.17
72262;BME280;60173;52.112;8.648;2022-08-03T02:29:32;100555.94;;;17.14;81.35
72262;BME280;60173;52.112;8.648;2022-08-03T02:32:08;100555.13;;;17.14;81.42
72262;BME280;60173;52.112;8.648;2022-08-03T02:34:35;100554.81;;;17.15;81.20
72262;BME280;60173;52.112;8.648;2022-08-03T02:37:03;100549.41;;;17.07;81.46
72262;BME280;60173;52.112;8.648;2022-08-03T02:39:31;100550.75;;;17.01;81.73
72262;BME280;60173;52.112;8.648;2022-08-03T02:42:00;100547.66;;;17.02;81.94
72262;BME280;60173;52.112;8.648;2022-08-03T02:44:28;100551.78;;;16.96;81.78
72262;BME280;60173;52.112;8.648;2022-08-03T02:46:59;100541.91;;;16.95;82.13
72262;BME280;60173;52.112;8.648;2022-08-03T02:49:28;100541.91;;;16.95;82.35
72262;BME280;60173;52.112;8.648;2022-08-03T02:52:16;100543.44;;;16.92;82.35
72262;BME280;60173;52.112;8.648;2022-08-03T02:54:45;100540.34;;;16.94;82.02
72262;BME280;60173;52.112;8.648;2022-08-03T02:57:14;100549.34;;;16.94;81.89
72262;BME280;60173;52.112;8.648;2022-08-03T02:59:42;100544.09;;;16.89;82.00
72262;BME280;60173;52.112;8.648;2022-08-03T03:02:09;100546.25;;;16.84;82.34
72262;BME280;60173;52.112;8.648;2022-08-03T03:04:37;100541.44;;;16.81;82.61
72262;BME280;60173;52.112;8.648;2022-08-03T03:07:24;100543.25;;;16.77;82.60
72262;BME280;60173;52.112;8.648;2022-08-03T03:09:54;100551.28;;;16.82;82.40
72262;BME280;60173;52.112;8.648;2022-08-03T03:12:21;100544.53;;;16.79;82.28
72262;BME280;60173;52.112;8.648;2022-08-03T03:14:47;100548.41;;;16.78;82.62
72262;BME280;60173;52.112;8.648;2022-08-03T03:17:15;100541.63;;;16.76;82.44
72262;BME280;60173;52.112;8.648;2022-08-03T03:19:43;100539.81;;;16.80;82.51
72262;BME280;60173;52.112;8.648;2022-08-03T03:22:11;100540.97;;;16.79;82.38
72262;BME280;60173;52.112;8.648;2022-08-03T03:24:38;100542.75;;;16.75;82.31
72262;BME280;60173;52.112;8.648;2022-08-03T03:27:07;100545.38;;;16.71;82.80
72262;BME280;60173;52.112;8.648;2022-08-03T03:29:34;100552.59;;;16.76;82.48
72262;BME280;60173;52.112;8.648;2022-08-03T03:32:05;100546.31;;;16.75;82.42
72262;BME280;60173;52.112;8.648;2022-08-03T03:34:35;100548.91;;;16.71;82.35
72262;BME280;60173;52.112;8.648;2022-08-03T03:37:01;100552.00;;;16.70;82.55
72262;BME280;60173;52.112;8.648;2022-08-03T03:39:28;100553.47;;;16.67;82.66
72262;BME280;60173;52.112;8.648;2022-08-03T03:41:54;100545.56;;;16.66;82.80
72262;BME280;60173;52.112;8.648;2022-08-03T03:44:21;100549.94;;;16.67;82.82
72262;BME280;60173;52.112;8.648;2022-08-03T03:46:47;100549.59;;;16.68;82.79
72262;BME280;60173;52.112;8.648;2022-08-03T03:49:14;100554.16;;;16.64;82.86
72262;BME280;60173;52.112;8.648;2022-08-03T03:51:40;100552.53;;;16.63;82.71
72262;BME280;60173;52.112;8.648;2022-08-03T03:54:07;100550.13;;;16.62;83.18
72262;BME280;60173;52.112;8.648;2022-08-03T03:56:33;100548.66;;;16.64;83.11
72262;BME280;60173;52.112;8.648;2022-08-03T03:59:00;100547.19;;;16.67;82.63
72262;BME280;60173;52.112;8.648;2022-08-03T04:01:26;100549.47;;;16.65;82.75
72262;BME280;60173;52.112;8.648;2022-08-03T04:03:52;100550.94;;;16.62;82.77
72262;BME280;60173;52.112;8.648;2022-08-03T04:06:19;100551.81;;;16.54;83.06
72262;BME280;60173;52.112;8.648;2022-08-03T04:08:45;100549.34;;;16.61;83.21
72262;BME280;60173;52.112;8.648;2022-08-03T04:14:03;100553.13;;;16.69;82.71
72262;BME280;60173;52.112;8.648;2022-08-03T04:16:32;100553.72;;;16.75;82.45
72262;BME280;60173;52.112;8.648;2022-08-03T04:19:02;100555.34;;;16.76;81.94
72262;BME280;60173;52.112;8.648;2022-08-03T04:21:31;100560.03;;;16.75;82.18
72262;BME280;60173;52.112;8.648;2022-08-03T04:24:01;100556.41;;;16.83;81.95
72262;BME280;60173;52.112;8.648;2022-08-03T04:26:30;100558.16;;;16.88;81.43
72262;BME280;60173;52.112;8.648;2022-08-03T04:28:59;100562.75;;;16.96;81.27
72262;BME280;60173;52.112;8.648;2022-08-03T04:31:26;100565.41;;;17.05;80.93
72262;BME280;60173;52.112;8.648;2022-08-03T04:33:54;100560.81;;;17.09;80.89
72262;BME280;60173;52.112;8.648;2022-08-03T04:36:24;100563.69;;;17.12;80.67
72262;BME280;60173;52.112;8.648;2022-08-03T04:39:02;100562.00;;;17.20;80.05
72262;BME280;60173;52.112;8.648;2022-08-03T04:41:30;100562.69;;;17.29;79.48
72262;BME280;60173;52.112;8.648;2022-08-03T04:44:18;100564.66;;;17.41;79.26
72262;BME280;60173;52.112;8.648;2022-08-03T04:46:45;100574.28;;;17.47;79.06
72262;BME280;60173;52.112;8.648;2022-08-03T04:49:19;100568.44;;;17.61;78.64
72262;BME280;60173;52.112;8.648;2022-08-03T04:51:47;100573.25;;;17.64;78.23
72262;BME280;60173;52.112;8.648;2022-08-03T04:54:14;100568.81;;;17.72;78.16
72262;BME280;60173;52.112;8.648;2022-08-03T04:56:44;100565.19;;;17.80;77.75
72262;BME280;60173;52.112;8.648;2022-08-03T04:59:11;100569.16;;;17.95;77.65
72262;BME280;60173;52.112;8.648;2022-08-03T05:01:39;100568.16;;;17.99;76.70
72262;BME280;60173;52.112;8.648;2022-08-03T05:04:05;100563.28;;;18.21;76.39
72262;BME280;60173;52.112;8.648;2022-08-03T05:06:31;100555.81;;;18.34;75.63
72262;BME280;60173;52.112;8.648;2022-08-03T05:08:58;100563.34;;;18.49;75.32
72262;BME280;60173;52.112;8.648;2022-08-03T05:11:24;100566.38;;;18.60;74.91
72262;BME280;60173;52.112;8.648;2022-08-03T05:13:51;100567.47;;;18.71;74.58
72262;BME280;60173;52.112;8.648;2022-08-03T05:16:17;100562.88;;;19.03;73.10
72262;BME280;60173;52.112;8.648;2022-08-03T05:18:44;100571.78;;;19.12;73.00
72262;BME280;60173;52.112;8.648;2022-08-03T05:21:12;100565.22;;;19.17;72.78
72262;BME280;60173;52.112;8.648;2022-08-03T05:23:39;100564.34;;;19.13;72.74
72262;BME280;60173;52.112;8.648;2022-08-03T05:26:05;100563.69;;;19.04;73.18
72262;BME280;60173;52.112;8.648;2022-08-03T05:28:32;100564.41;;;19.01;73.35
72262;BME280;60173;52.112;8.648;2022-08-03T05:30:58;100566.53;;;19.23;72.90
72262;BME280;60173;52.112;8.648;2022-08-03T05:33:24;100578.13;;;19.45;72.29
72262;BME280;60173;52.112;8.648;2022-08-03T05:35:51;100574.31;;;19.65;71.10
72262;BME280;60173;52.112;8.648;2022-08-03T05:38:29;100571.81;;;19.92;70.35
72262;BME280;60173;52.112;8.648;2022-08-03T05:41:01;100571.00;;;20.26;69.49
72262;BME280;60173;52.112;8.648;2022-08-03T05:43:48;100572.59;;;20.63;68.09
72262;BME280;60173;52.112;8.648;2022-08-03T05:46:15;100571.53;;;20.71;67.99
72262;BME280;60173;52.112;8.648;2022-08-03T05:48:41;100564.72;;;20.84;66.86
72262;BME280;60173;52.112;8.648;2022-08-03T05:51:08;100571.19;;;20.92;66.71
72262;BME280;60173;52.112;8.648;2022-08-03T05:53:34;100578.28;;;20.93;66.97
72262;BME280;60173;52.112;8.648;2022-08-03T05:56:01;100572.59;;;21.05;66.56
72262;BME280;60173;52.112;8.648;2022-08-03T05:58:41;100573.00;;;21.27;65.67
72262;BME280;60173;52.112;8.648;2022-08-03T06:01:07;100575.78;;;21.27;65.58
72262;BME280;60173;52.112;8.648;2022-08-03T06:03:33;100571.09;;;21.31;66.12
72262;BME280;60173;52.112;8.648;2022-08-03T06:06:00;100578.44;;;21.42;66.09
72262;BME280;60173;52.112;8.648;2022-08-03T06:08:26;100581.94;;;21.39;66.36
72262;BME280;60173;52.112;8.648;2022-08-03T06:10:52;100575.06;;;21.53;64.90
72262;BME280;60173;52.112;8.648;2022-08-03T06:13:19;100568.00;;;21.55;65.05
72262;BME280;60173;52.112;8.648;2022-08-03T06:15:45;100576.31;;;21.82;65.03
72262;BME280;60173;52.112;8.648;2022-08-03T06:18:11;100569.28;;;21.88;63.59
72262;BME280;60173;52.112;8.648;2022-08-03T06:20:38;100570.69;;;22.28;64.04
72262;BME280;60173;52.112;8.648;2022-08-03T06:23:05;100564.81;;;22.67;62.34
72262;BME280;60173;52.112;8.648;2022-08-03T06:25:32;100568.66;;;23.26;61.08
72262;BME280;60173;52.112;8.648;2022-08-03T06:27:59;100563.38;;;23.58;59.75
72262;BME280;60173;52.112;8.648;2022-08-03T06:30:25;100576.56;;;23.72;59.20
72262;BME280;60173;52.112;8.648;2022-08-03T06:32:52;100577.84;;;23.82;59.19
72262;BME280;60173;52.112;8.648;2022-08-03T06:35:18;100572.06;;;24.05;59.09
72262;BME280;60173;52.112;8.648;2022-08-03T06:37:47;100578.50;;;24.23;58.34
72262;BME280;60173;52.112;8.648;2022-08-03T06:40:15;100575.94;;;24.63;57.47
72262;BME280;60173;52.112;8.648;2022-08-03T06:42:49;100574.06;;;25.02;55.94
72262;BME280;60173;52.112;8.648;2022-08-03T06:45:16;100572.88;;;25.07;55.85
72262;BME280;60173;52.112;8.648;2022-08-03T06:47:43;100573.34;;;25.23;56.35
72262;BME280;60173;52.112;8.648;2022-08-03T06:50:10;100572.53;;;25.30;55.33
72262;BME280;60173;52.112;8.648;2022-08-03T06:52:42;100580.00;;;24.94;55.73
72262;BME280;60173;52.112;8.648;2022-08-03T06:55:08;100575.94;;;24.70;56.85
72262;BME280;60173;52.112;8.648;2022-08-03T06:57:35;100578.25;;;24.46;58.39
72262;BME280;60173;52.112;8.648;2022-08-03T07:00:02;100578.13;;;24.28;58.68
72262;BME280;60173;52.112;8.648;2022-08-03T07:02:37;100578.94;;;24.32;58.81
72262;BME280;60173;52.112;8.648;2022-08-03T07:05:04;100578.53;;;24.30;58.02
72262;BME280;60173;52.112;8.648;2022-08-03T07:07:31;100573.84;;;24.42;58.10
72262;BME280;60173;52.112;8.648;2022-08-03T07:09:57;100573.53;;;24.54;58.40
72262;BME280;60173;52.112;8.648;2022-08-03T07:12:27;100572.69;;;24.50;57.48
72262;BME280;60173;52.112;8.648;2022-08-03T07:14:54;100573.84;;;24.42;58.66
72262;BME280;60173;52.112;8.648;2022-08-03T07:17:28;100573.59;;;24.68;57.58
72262;BME280;60173;52.112;8.648;2022-08-03T07:19:55;100578.41;;;24.93;57.42
72262;BME280;60173;52.112;8.648;2022-08-03T07:22:22;100582.47;;;25.24;56.52
72262;BME280;60173;52.112;8.648;2022-08-03T07:24:48;100584.06;;;25.29;55.95
72262;BME280;60173;52.112;8.648;2022-08-03T07:27:15;100588.81;;;25.42;55.16
72262;BME280;60173;52.112;8.648;2022-08-03T07:29:41;100589.59;;;25.21;56.48
72262;BME280;60173;52.112;8.648;2022-08-03T07:32:08;100582.88;;;25.26;56.14
72262;BME280;60173;52.112;8.648;2022-08-03T07:34:34;100586.84;;;25.36;56.46
72262;BME280;60173;52.112;8.648;2022-08-03T07:37:01;100582.88;;;25.37;55.99
72262;BME280;60173;52.112;8.648;2022-08-03T07:39:27;100583.69;;;25.41;55.96
72262;BME280;60173;52.112;8.648;2022-08-03T07:41:54;100580.09;;;25.58;56.10
72262;BME280;60173;52.112;8.648;2022-08-03T07:44:20;100584.88;;;25.76;55.95
72262;BME280;60173;52.112;8.648;2022-08-03T07:46:47;100585.28;;;25.85;54.39
72262;BME280;60173;52.112;8.648;2022-08-03T07:49:13;100586.44;;;25.95;55.02
72262;BME280;60173;52.112;8.648;2022-08-03T07:51:39;100582.41;;;26.21;53.98
72262;BME280;60173;52.112;8.648;2022-08-03T07:54:06;100586.31;;;26.48;53.80
72262;BME280;60173;52.112;8.648;2022-08-03T07:56:32;100583.53;;;26.48;53.04
72262;BME280;60173;52.112;8.648;2022-08-03T07:58:59;100583.81;;;26.75;51.52
72262;BME280;60173;52.112;8.648;2022-08-03T08:01:25;100586.94;;;26.92;50.30
72262;BME280;60173;52.112;8.648;2022-08-03T08:03:51;100582.19;;;26.81;50.27
72262;BME280;60173;52.112;8.648;2022-08-03T08:06:19;100580.72;;;26.55;51.04
72262;BME280;60173;52.112;8.648;2022-08-03T08:08:46;100580.38;;;26.53;51.11
72262;BME280;60173;52.112;8.648;2022-08-03T08:11:12;100576.69;;;26.71;51.00
72262;BME280;60173;52.112;8.648;2022-08-03T08:13:39;100577.38;;;26.93;50.51
72262;BME280;60173;52.112;8.648;2022-08-03T08:16:05;100584.41;;;27.19;49.37
72262;BME280;60173;52.112;8.648;2022-08-03T08:18:31;100580.25;;;27.41;48.48
72262;BME280;60173;52.112;8.648;2022-08-03T08:20:58;100576.97;;;27.54;47.94
72262;BME280;60173;52.112;8.648;2022-08-03T08:23:24;100585.72;;;27.56;48.19
72262;BME280;60173;52.112;8.648;2022-08-03T08:26:09;100584.78;;;27.73;48.38
72262;BME280;60173;52.112;8.648;2022-08-03T08:28:35;100578.34;;;27.76;47.61
72262;BME280;60173;52.112;8.648;2022-08-03T08:31:02;100580.38;;;27.76;47.46
72262;BME280;60173;52.112;8.648;2022-08-03T08:33:28;100586.31;;;27.81;47.29
72262;BME280;60173;52.112;8.648;2022-08-03T08:36:14;100574.72;;;27.86;46.18
72262;BME280;60173;52.112;8.648;2022-08-03T08:38:42;100579.94;;;27.77;47.21
72262;BME280;60173;52.112;8.648;2022-08-03T08:41:09;100580.75;;;27.81;46.31
72262;BME280;60173;52.112;8.648;2022-08-03T08:43:36;100577.44;;;27.93;46.24
72262;BME280;60173;52.112;8.648;2022-08-03T08:46:04;100579.56;;;27.79;46.53
72262;BME280;60173;52.112;8.648;2022-08-03T08:48:31;100580.66;;;27.92;45.90
72262;BME280;60173;52.112;8.648;2022-08-03T08:50:59;100572.81;;;28.14;46.25
72262;BME280;60173;52.112;8.648;2022-08-03T08:53:30;100571.94;;;28.21;45.01
72262;BME280;60173;52.112;8.648;2022-08-03T08:55:58;100567.53;;;28.23;45.38
72262;BME280;60173;52.112;8.648;2022-08-03T08:58:34;100576.56;;;28.38;45.16
72262;BME280;60173;52.112;8.648;2022-08-03T09:01:03;100572.53;;;28.43;44.72
72262;BME280;60173;52.112;8.648;2022-08-03T09:03:32;100572.06;;;28.48;44.77
72262;BME280;60173;52.112;8.648;2022-08-03T09:06:00;100571.78;;;28.69;44.51
72262;BME280;60173;52.112;8.648;2022-08-03T09:08:31;100561.75;;;28.72;45.00
72262;BME280;60173;52.112;8.648;2022-08-03T09:10:58;100565.13;;;28.59;45.22
72262;BME280;60173;52.112;8.648;2022-08-03T09:13:25;100568.63;;;28.67;44.06
72262;BME280;60173;52.112;8.648;2022-08-03T09:18:36;100550.44;;;28.82;43.69
72262;BME280;60173;52.112;8.648;2022-08-03T09:21:23;100553.81;;;28.97;44.58
72262;BME280;60173;52.112;8.648;2022-08-03T09:24:00;100550.41;;;29.13;44.37
72262;BME280;60173;52.112;8.648;2022-08-03T09:26:30;100539.34;;;29.06;43.88
72262;BME280;60173;52.112;8.648;2022-08-03T09:31:39;100548.84;;;29.12;43.52
72262;BME280;60173;52.112;8.648;2022-08-03T09:34:15;100546.47;;;29.11;43.94
72262;BME280;60173;52.112;8.648;2022-08-03T09:39:11;100551.03;;;28.97;44.11
72262;BME280;60173;52.112;8.648;2022-08-03T09:41:40;100548.56;;;29.03;44.09
72262;BME280;60173;52.112;8.648;2022-08-03T09:44:07;100544.56;;;29.04;44.60
72262;BME280;60173;52.112;8.648;2022-08-03T09:46:50;100540.69;;;29.21;44.10
72262;BME280;60173;52.112;8.648;2022-08-03T09:49:17;100537.88;;;29.48;44.30
72262;BME280;60173;52.112;8.648;2022-08-03T09:51:44;100549.56;;;29.67;42.79
72262;BME280;60173;52.112;8.648;2022-08-03T09:54:31;100544.63;;;29.75;43.05
72262;BME280;60173;52.112;8.648;2022-08-03T09:56:57;100539.84;;;29.95;42.50
72262;BME280;60173;52.112;8.648;2022-08-03T09:59:26;100554.06;;;30.04;43.35
72262;BME280;60173;52.112;8.648;2022-08-03T10:01:54;100538.53;;;30.00;42.05
72262;BME280;60173;52.112;8.648;2022-08-03T10:04:21;100543.56;;;29.88;41.70
72262;BME280;60173;52.112;8.648;2022-08-03T10:07:08;100544.06;;;29.60;43.31
72262;BME280;60173;52.112;8.648;2022-08-03T10:09:35;100543.88;;;29.47;44.29
72262;BME280;60173;52.112;8.648;2022-08-03T10:12:12;100549.28;;;29.81;43.08
72262;BME280;60173;52.112;8.648;2022-08-03T10:14:40;100550.69;;;29.93;42.49
72262;BME280;60173;52.112;8.648;2022-08-03T10:17:08;100545.91;;;29.70;43.31
72262;BME280;60173;52.112;8.648;2022-08-03T10:19:34;100546.66;;;29.94;42.74
72262;BME280;60173;52.112;8.648;2022-08-03T10:22:12;100539.06;;;29.94;42.81
72262;BME280;60173;52.112;8.648;2022-08-03T10:24:45;100541.25;;;30.27;42.46
72262;BME280;60173;52.112;8.648;2022-08-03T10:27:13;100534.00;;;30.29;42.29
72262;BME280;60173;52.112;8.648;2022-08-03T10:29:44;100530.03;;;30.47;41.76
72262;BME280;60173;52.112;8.648;2022-08-03T10:32:29;100538.19;;;30.57;40.90
72262;BME280;60173;52.112;8.648;2022-08-03T10:35:10;100535.19;;;30.48;41.16
72262;BME280;60173;52.112;8.648;2022-08-03T10:38:01;100535.25;;;30.65;41.80
72262;BME280;60173;52.112;8.648;2022-08-03T10:40:30;100535.75;;;30.59;41.77
72262;BME280;60173;52.112;8.648;2022-08-03T10:43:21;100526.53;;;30.79;41.33
72262;BME280;60173;52.112;8.648;2022-08-03T10:45:51;100530.44;;;31.01;41.73
72262;BME280;60173;52.112;8.648;2022-08-03T10:48:18;100526.13;;;30.97;40.97
72262;BME280;60173;52.112;8.648;2022-08-03T10:50:45;100520.16;;;31.11;39.99
72262;BME280;60173;52.112;8.648;2022-08-03T10:53:13;100527.97;;;31.20;41.13
72262;BME280;60173;52.112;8.648;2022-08-03T10:55:45;100530.81;;;31.36;42.12
72262;BME280;60173;52.112;8.648;2022-08-03T10:58:11;100520.16;;;31.44;39.28
72262;BME280;60173;52.112;8.648;2022-08-03T11:00:55;100517.44;;;31.57;39.18
72262;BME280;60173;52.112;8.648;2022-08-03T11:03:21;100523.59;;;31.35;40.19
72262;BME280;60173;52.112;8.648;2022-08-03T11:05:48;100522.09;;;31.47;38.15
72262;BME280;60173;52.112;8.648;2022-08-03T11:08:20;100521.13;;;31.54;39.39
72262;BME280;60173;52.112;8.648;2022-08-03T11:10:49;100518.66;;;31.56;37.66
72262;BME280;60173;52.112;8.648;2022-08-03T11:13:18;100515.34;;;31.44;37.73
72262;BME280;60173;52.112;8.648;2022-08-03T11:15:48;100507.13;;;31.37;36.17
72262;BME280;60173;52.112;8.648;2022-08-03T11:18:14;100519.19;;;31.18;37.78
72262;BME280;60173;52.112;8.648;2022-08-03T11:23:16;100510.34;;;31.52;37.71
72262;BME280;60173;52.112;8.648;2022-08-03T11:26:09;100507.63;;;31.48;38.55
72262;BME280;60173;52.112;8.648;2022-08-03T11:28:35;100504.75;;;31.19;38.69
72262;BME280;60173;52.112;8.648;2022-08-03T11:34:15;100503.94;;;31.02;38.12
72262;BME280;60173;52.112;8.648;2022-08-03T11:37:19;100506.03;;;30.98;39.53
72262;BME280;60173;52.112;8.648;2022-08-03T11:39:48;100503.16;;;31.18;37.68
72262;BME280;60173;52.112;8.648;2022-08-03T11:44:57;100506.75;;;31.35;38.18
72262;BME280;60173;52.112;8.648;2022-08-03T11:47:26;100501.31;;;31.28;38.05
72262;BME280;60173;52.112;8.648;2022-08-03T11:49:55;100499.56;;;31.34;36.33
72262;BME280;60173;52.112;8.648;2022-08-03T11:52:22;100498.59;;;31.41;37.41
72262;BME280;60173;52.112;8.648;2022-08-03T11:54:53;100508.56;;;31.58;38.59
72262;BME280;60173;52.112;8.648;2022-08-03T11:57:33;100502.88;;;31.91;36.73
72262;BME280;60173;52.112;8.648;2022-08-03T12:00:21;100506.84;;;31.93;40.39
72262;BME280;60173;52.112;8.648;2022-08-03T12:03:03;100501.91;;;31.52;37.39
72262;BME280;60173;52.112;8.648;2022-08-03T12:05:46;100506.03;;;31.64;37.04
72262;BME280;60173;52.112;8.648;2022-08-03T12:10:54;100497.84;;;31.69;36.90
72262;BME280;60173;52.112;8.648;2022-08-03T12:13:22;100501.44;;;31.70;36.19
72262;BME280;60173;52.112;8.648;2022-08-03T12:16:08;100501.88;;;31.39;37.30
72262;BME280;60173;52.112;8.648;2022-08-03T12:18:35;100490.78;;;31.32;40.01
72262;BME280;60173;52.112;8.648;2022-08-03T12:21:06;100498.34;;;31.51;39.01
72262;BME280;60173;52.112;8.648;2022-08-03T12:23:34;100501.25;;;31.48;37.82
72262;BME280;60173;52.112;8.648;2022-08-03T12:26:08;100493.22;;;31.30;37.83
72262;BME280;60173;52.112;8.648;2022-08-03T12:28:35;100493.22;;;31.30;38.75
72262;BME280;60173;52.112;8.648;2022-08-03T12:31:06;100484.94;;;31.43;38.42
72262;BME280;60173;52.112;8.648;2022-08-03T12:34:00;100486.31;;;31.35;38.04
72262;BME280;60173;52.112;8.648;2022-08-03T12:36:27;100488.41;;;31.47;37.84
72262;BME280;60173;52.112;8.648;2022-08-03T12:39:03;100480.31;;;31.65;36.93
72262;BME280;60173;52.112;8.648;2022-08-03T12:41:36;100490.47;;;31.75;37.25
72262;BME280;60173;52.112;8.648;2022-08-03T12:44:05;100488.25;;;31.83;37.21
72262;BME280;60173;52.112;8.648;2022-08-03T12:49:06;100490.16;;;31.86;36.90
72262;BME280;60173;52.112;8.648;2022-08-03T12:51:54;100493.69;;;31.90;35.87
72262;BME280;60173;52.112;8.648;2022-08-03T12:54:23;100478.34;;;31.79;36.71
72262;BME280;60173;52.112;8.648;2022-08-03T12:57:04;100481.47;;;31.97;36.93
72262;BME280;60173;52.112;8.648;2022-08-03T12:59:36;100477.66;;;32.04;36.58
72262;BME280;60173;52.112;8.648;2022-08-03T13:04:40;100474.09;;;31.87;36.11
72262;BME280;60173;52.112;8.648;2022-08-03T13:07:09;100470.94;;;32.14;36.85
72262;BME280;60173;52.112;8.648;2022-08-03T13:12:14;100468.00;;;32.05;36.78
72262;BME280;60173;52.112;8.648;2022-08-03T13:14:42;100470.00;;;31.91;36.97
72262;BME280;60173;52.112;8.648;2022-08-03T13:17:10;100471.69;;;32.02;36.10
72262;BME280;60173;52.112;8.648;2022-08-03T13:19:38;100467.03;;;32.24;38.05
72262;BME280;60173;52.112;8.648;2022-08-03T13:22:12;100460.75;;;32.20;36.53
72262;BME280;60173;52.112;8.648;2022-08-03T13:24:39;100459.56;;;32.05;35.51
72262;BME280;60173;52.112;8.648;2022-08-03T13:27:05;100464.66;;;32.10;35.85
72262;BME280;60173;52.112;8.648;2022-08-03T13:29:52;100461.75;;;32.26;35.72
72262;BME280;60173;52.112;8.648;2022-08-03T13:32:19;100464.44;;;32.42;35.71
72262;BME280;60173;52.112;8.648;2022-08-03T13:34:46;100455.72;;;32.66;34.47
72262;BME280;60173;52.112;8.648;2022-08-03T13:37:13;100464.16;;;32.53;36.06
72262;BME280;60173;52.112;8.648;2022-08-03T13:39:41;100456.63;;;32.50;35.04